North West River, Canada
Current Conditions -  °F | °C
As of 6:00 AM on Tuesday 21 Oct 2014 (Local Time) from CYYR Reporting Station
Broken Clouds Broken Clouds  
Wind Chill: 26°   Ceiling: 11000
Heat Index: 34°   Visibility: 15mi
Dew Point: 30°   Wind: 9mph
Humidity: 87%   Direction: 290°WNW
Pressure: 29.69"   Gusts: NA
Location:  53.53°N, 60.15°W
Report Text: CYYR 210900Z 29008KT 15SM FEW035 SCT082 BKN110 BKN180 01/M01 A2969 RMK SC1AC2AC1AC2 /BLUE/ SLP056
Loading
Personal Weather Stations






























Interactive Weather Map
Tropical Storm Tracking
New forecast layout! Learn more

10-Day Weather Forecast

Advertisements
Track Severe Weather on mobile